Detalii statie BONGA [00001D00]

Toti senzorii

Date Temperatura solului [C]Precipitatii [mm]Voltaj baterie [mV]Leaf Wetness [Min]HC Air temperature [C]HC Relative humidity [%]Punctul de roua [C]
medieminmaxsumaultimatimpmedieminmaxmediemediemin
2018-12-09 15:00:00 0.5 0.5 0.6 0 7020
2018-12-09 16:00:00 0.5 0.5 0.6 0 6972
2018-12-09 17:00:00 0.4 0.4 0.5 0 6922
2018-12-09 18:00:00 0.4 0.4 0.5 0 6894
2018-12-09 19:00:00 0.4 0.4 0.5 0 6874
2018-12-09 20:00:00 0.4 0.4 0.5 0 6864
2018-12-09 21:00:00 0.5 0.4 0.6 0 6844
2018-12-09 22:00:00 0.4 0.4 0.5 0 6834
2018-12-09 23:00:00 0.4 0.4 0.5 0 6826
2018-12-10 00:00:00 0.4 0.3 0.5 0 6806
2018-12-10 01:00:00 0.3 0.3 0.5 0 6806
2018-12-10 02:00:00 0.3 0.2 0.4 0 6796
2018-12-10 03:00:00 0.3 0.2 0.4 0 6796
2018-12-10 04:00:00 0.3 0.3 0.4 0 6786
2018-12-10 05:00:00 0.3 0.3 0.4 0 6786
2018-12-10 06:00:00 0.3 0.2 0.4 0 6786
2018-12-10 07:00:00 0.3 0.3 0.4 0 6786
2018-12-10 08:00:00 0.3 0.3 0.4 0 6786
2018-12-10 09:00:00 0.4 0.3 0.5 0 6806
2018-12-10 10:00:00 0.4 0.4 0.5 0 6922
2018-12-10 11:00:00 0.4 0.4 0.5 0 6992
2018-12-10 12:00:00 0.5 0.4 0.7 0 7020
2018-12-10 13:00:00 0.6 0.6 0.7 0 7020
2018-12-10 14:00:00 0.6 0.6 0.7 0 7010
2018-12-10 15:00:00 0.6 0.6 0.7 0 6982
2018-12-10 16:00:00 0.7 0.7 0.8 0 6894
2018-12-10 17:00:00 0.6 0.6 0.7 0 6864
2018-12-10 18:00:00 0.5 0.3 0.6 0 6834
2018-12-10 19:00:00 0.5 0.5 0.7 0 6826
2018-12-10 20:00:00 0.5 0.5 0.7 0 6806
2018-12-10 21:00:00 0.5 0.5 0.7 0 6796
2018-12-10 22:00:00 0.5 0.5 0.6 0 6786
2018-12-10 23:00:00 0.5 0.5 0.6 0 6786
2018-12-11 00:00:00 0.5 0.5 0.7 0 6786
2018-12-11 01:00:00 0.5 0.4 0.6 0 6786
2018-12-11 02:00:00 0.5 0.5 0.6 0 6786
2018-12-11 03:00:00 0.6 0.5 0.7 0 6786
2018-12-11 04:00:00 0.5 0.5 0.6 0 6776
2018-12-11 05:00:00 0.5 0.5 0.6 0 6776
2018-12-11 06:00:00 0.5 0.4 0.6 0 6776
2018-12-11 07:00:00 0.5 0.4 0.6 0 6776
2018-12-11 08:00:00 0.4 0.4 0.5 0 6776
2018-12-11 09:00:00 0.4 0.4 0.5 0 6816
2018-12-11 10:00:00 0.4 0.4 0.6 0 6874
2018-12-11 11:00:00 0.6 0.5 0.7 0 6904
2018-12-11 12:00:00 0.8 0.7 1 0 6894
2018-12-11 13:00:00 1 1 1.1 0 6914
2018-12-11 14:00:00 1.1 1 1.3 0 6932